createdAt,value
2018-08-24T00:00:29.825Z,95267.11
2018-08-24T00:02:59.161Z,95269.45
2018-08-24T00:05:28.310Z,95277.34
2018-08-24T00:07:57.465Z,95266.48
2018-08-24T00:10:26.637Z,95260.12
2018-08-24T00:12:55.777Z,95264.75
2018-08-24T00:15:24.925Z,95262.83
2018-08-24T00:17:54.342Z,95262.70
2018-08-24T00:20:23.481Z,95264.70
2018-08-24T00:22:52.593Z,95264.61
2018-08-24T00:25:21.728Z,95263.25
2018-08-24T00:27:50.840Z,95255.44
2018-08-24T00:30:20.132Z,95249.38
2018-08-24T00:32:49.261Z,95250.89
2018-08-24T00:35:18.386Z,95244.11
2018-08-24T00:37:47.825Z,95253.36
2018-08-24T00:40:23.198Z,95253.14
2018-08-24T00:42:52.669Z,95259.69
2018-08-24T00:45:21.784Z,95256.12
2018-08-24T00:47:50.906Z,95258.45
2018-08-24T00:50:20.037Z,95257.29
2018-08-24T00:52:49.169Z,95250.92
2018-08-24T00:55:18.301Z,95257.70
2018-08-24T00:57:47.443Z,95260.34
2018-08-24T01:00:16.602Z,95256.19
2018-08-24T01:02:45.717Z,95263.44
2018-08-24T01:05:14.857Z,95251.30
2018-08-24T01:07:49.289Z,95257.12
2018-08-24T01:10:23.845Z,95257.76
2018-08-24T01:12:53.013Z,95263.41
2018-08-24T01:15:22.125Z,95266.08
2018-08-24T01:18:57.261Z,95263.36
2018-08-24T01:21:26.436Z,95264.97
2018-08-24T01:23:55.573Z,95265.05
2018-08-24T01:26:25.501Z,95270.31
2018-08-24T01:28:55.119Z,95267.85
2018-08-24T01:31:24.253Z,95260.98
2018-08-24T01:33:53.392Z,95266.24
2018-08-24T01:36:22.586Z,95273.03
2018-08-24T01:38:51.844Z,95269.20
2018-08-24T01:41:20.962Z,95268.87
2018-08-24T01:43:50.081Z,95272.73
2018-08-24T01:46:19.221Z,95275.36
2018-08-24T01:48:48.355Z,95268.23
2018-08-24T01:51:17.486Z,95266.74
2018-08-24T01:53:46.609Z,95262.89
2018-08-24T01:56:22.501Z,95263.52
2018-08-24T01:58:51.633Z,95265.77
2018-08-24T02:01:20.753Z,95262.84
2018-08-24T02:03:49.936Z,95267.05
2018-08-24T02:06:19.065Z,95267.46
2018-08-24T02:08:48.194Z,95259.87
2018-08-24T02:11:34.737Z,95260.36
2018-08-24T02:14:09.060Z,95263.08
2018-08-24T02:16:39.113Z,95260.78
2018-08-24T02:19:11.386Z,95259.42
2018-08-24T02:21:45.842Z,95256.16
2018-08-24T02:24:15.197Z,95256.16
2018-08-24T02:26:45.174Z,95249.70
2018-08-24T02:29:14.315Z,95253.02
2018-08-24T02:31:50.197Z,95254.47
2018-08-24T02:34:19.449Z,95257.04
2018-08-24T02:36:48.574Z,95257.30
2018-08-24T02:39:18.928Z,95257.98
2018-08-24T02:41:48.062Z,95261.84
2018-08-24T02:44:17.249Z,95266.09
2018-08-24T02:46:47.148Z,95254.77
2018-08-24T02:49:16.272Z,95266.42
2018-08-24T02:51:45.417Z,95262.73
2018-08-24T02:54:14.580Z,95273.50
2018-08-24T02:56:43.858Z,95274.08
2018-08-24T02:59:13.116Z,95273.97
2018-08-24T03:01:42.261Z,95267.91
2018-08-24T03:04:11.416Z,95268.40
2018-08-24T03:06:40.599Z,95263.22
2018-08-24T03:09:11.137Z,95270.09
2018-08-24T03:11:40.306Z,95270.02
2018-08-24T03:14:09.484Z,95269.84
2018-08-24T03:16:38.658Z,95272.97
2018-08-24T03:19:07.793Z,95272.09
2018-08-24T03:21:36.974Z,95272.56
2018-08-24T03:24:05.809Z,95271.61
2018-08-24T03:26:35.359Z,95266.66
2018-08-24T03:29:04.525Z,95260.75
2018-08-24T03:31:33.680Z,95268.36
2018-08-24T03:34:02.966Z,95263.89
2018-08-24T03:36:32.097Z,95268.44
2018-08-24T03:39:01.325Z,95261.66
2018-08-24T03:41:30.534Z,95260.63
2018-08-24T03:44:00.577Z,95262.31
2018-08-24T03:46:29.706Z,95265.42
2018-08-24T03:48:58.954Z,95267.48
2018-08-24T03:51:28.073Z,95264.14
2018-08-24T03:53:57.217Z,95261.91
2018-08-24T03:56:26.417Z,95264.30
2018-08-24T03:58:55.557Z,95263.48
2018-08-24T04:01:24.705Z,95262.13
2018-08-24T04:03:53.863Z,95264.77
2018-08-24T04:06:23.006Z,95262.31
2018-08-24T04:08:52.137Z,95265.98
2018-08-24T04:11:21.286Z,95268.77
2018-08-24T04:13:50.425Z,95261.43
2018-08-24T04:16:19.618Z,95279.45
2018-08-24T04:18:48.729Z,95275.06
2018-08-24T04:21:17.869Z,95280.00
2018-08-24T04:23:46.998Z,95284.08
2018-08-24T04:26:16.145Z,95279.06
2018-08-24T04:28:45.269Z,95279.28
2018-08-24T04:31:14.399Z,95274.66
2018-08-24T04:33:43.528Z,95279.20
2018-08-24T04:36:12.662Z,95279.54
2018-08-24T04:38:41.802Z,95280.42
2018-08-24T04:41:10.933Z,95276.97
2018-08-24T04:43:40.056Z,95281.77
2018-08-24T04:46:09.185Z,95280.02
2018-08-24T04:48:38.321Z,95284.38
2018-08-24T04:51:07.441Z,95290.39
2018-08-24T04:53:36.593Z,95289.43
2018-08-24T04:56:06.013Z,95289.91
2018-08-24T04:58:35.158Z,95294.38
2018-08-24T05:01:04.301Z,95288.95
2018-08-24T05:03:33.439Z,95292.05
2018-08-24T05:06:02.554Z,95287.27
2018-08-24T05:08:31.709Z,95284.30
2018-08-24T05:11:00.836Z,95285.84
2018-08-24T05:13:30.526Z,95280.82
2018-08-24T05:15:59.793Z,95280.09
2018-08-24T05:18:28.948Z,95280.82
2018-08-24T05:20:58.077Z,95282.80
2018-08-24T05:23:27.313Z,95280.16
2018-08-24T05:25:56.527Z,95278.48
2018-08-24T05:28:25.694Z,95279.83
2018-08-24T05:30:54.909Z,95287.02
2018-08-24T05:33:24.063Z,95290.21
2018-08-24T05:35:53.204Z,95286.25
2018-08-24T05:38:22.372Z,95292.37
2018-08-24T05:40:51.537Z,95292.22
2018-08-24T05:43:20.699Z,95294.20
2018-08-24T05:45:49.845Z,95294.12
2018-08-24T05:48:19.014Z,95301.39
2018-08-24T05:50:48.165Z,95311.03
2018-08-24T05:53:17.337Z,95305.13
2018-08-24T05:55:46.673Z,95309.85
2018-08-24T05:58:15.725Z,95320.22
2018-08-24T06:00:46.710Z,95317.03
2018-08-24T06:03:15.873Z,95326.52
2018-08-24T06:05:50.452Z,95320.37
2018-08-24T06:08:19.504Z,95324.59
2018-08-24T06:10:48.673Z,95324.59
2018-08-24T06:13:19.029Z,95322.69
2018-08-24T06:15:49.592Z,95328.77
2018-08-24T06:18:18.771Z,95332.98
2018-08-24T06:20:47.894Z,95339.44
2018-08-24T06:23:17.012Z,95339.70
2018-08-24T06:25:46.165Z,95348.31
2018-08-24T06:28:15.385Z,95344.87
2018-08-24T06:30:44.529Z,95349.59
2018-08-24T06:33:13.649Z,95342.48
2018-08-24T06:35:42.784Z,95349.42
2018-08-24T06:38:11.970Z,95350.80
2018-08-24T06:40:41.093Z,95354.06
2018-08-24T06:43:10.222Z,95359.66
2018-08-24T06:45:39.345Z,95368.01
2018-08-24T06:48:08.497Z,95367.10
2018-08-24T06:50:37.633Z,95366.69
2018-08-24T06:53:06.780Z,95375.56
2018-08-24T06:55:35.875Z,95378.67
2018-08-24T06:58:05.073Z,95382.42
2018-08-24T07:00:34.200Z,95382.26
2018-08-24T07:03:03.605Z,95381.14
2018-08-24T07:05:32.796Z,95387.95
2018-08-24T07:08:01.926Z,95394.44
2018-08-24T07:10:31.114Z,95398.67
2018-08-24T07:13:00.331Z,95397.57
2018-08-24T07:15:29.419Z,95399.31
2018-08-24T07:18:00.481Z,95396.31
2018-08-24T07:20:29.854Z,95400.31
2018-08-24T07:22:58.965Z,95401.09
2018-08-24T07:25:28.138Z,95400.57
2018-08-24T07:27:57.270Z,95398.45
2018-08-24T07:30:26.461Z,95405.71
2018-08-24T07:32:55.606Z,95400.51
2018-08-24T07:35:24.781Z,95405.45
2018-08-24T07:37:53.925Z,95409.31
2018-08-24T07:40:23.081Z,95409.89
2018-08-24T07:42:52.249Z,95409.23
2018-08-24T07:45:21.409Z,95413.47
2018-08-24T07:47:50.561Z,95412.34
2018-08-24T07:50:19.685Z,95403.08
2018-08-24T07:52:48.831Z,95403.55
2018-08-24T07:55:17.958Z,95402.21
2018-08-24T07:57:47.093Z,95405.63
2018-08-24T08:00:16.242Z,95401.06
2018-08-24T08:02:45.725Z,95405.05
2018-08-24T08:05:15.345Z,95397.42
2018-08-24T08:07:44.590Z,95401.73
2018-08-24T08:10:13.745Z,95401.40
2018-08-24T08:12:43.034Z,95401.16
2018-08-24T08:15:12.053Z,95401.73
2018-08-24T08:17:41.596Z,95404.04
2018-08-24T08:20:11.277Z,95404.92
2018-08-24T08:22:40.429Z,95397.27
2018-08-24T08:25:09.582Z,95399.81
2018-08-24T08:27:38.751Z,95394.70
2018-08-24T08:30:08.110Z,95396.40
2018-08-24T08:32:37.268Z,95392.59
2018-08-24T08:35:06.481Z,95392.77
2018-08-24T08:37:35.625Z,95394.12
2018-08-24T08:40:04.790Z,95390.39
2018-08-24T08:42:33.957Z,95390.03
2018-08-24T08:45:03.105Z,95390.22
2018-08-24T08:47:32.288Z,95391.30
2018-08-24T08:50:01.437Z,95394.02
2018-08-24T08:52:30.630Z,95399.59
2018-08-24T08:54:59.785Z,95400.54
2018-08-24T08:57:28.983Z,95398.84
2018-08-24T08:59:58.158Z,95397.70
2018-08-24T09:02:27.309Z,95400.82
2018-08-24T09:04:56.477Z,95405.62
2018-08-24T09:07:25.653Z,95406.50
2018-08-24T09:09:54.862Z,95399.23
2018-08-24T09:12:24.031Z,95401.88
2018-08-24T09:14:53.201Z,95407.36
2018-08-24T09:17:27.528Z,95404.34
2018-08-24T09:20:01.902Z,95411.39
2018-08-24T09:22:36.186Z,95431.28
2018-08-24T09:25:10.689Z,95413.00
2018-08-24T09:28:42.789Z,95422.17
2018-08-24T09:31:19.132Z,95415.25
2018-08-24T09:33:48.288Z,95429.78
2018-08-24T09:36:20.594Z,95430.50
2018-08-24T09:38:50.924Z,95441.95
2018-08-24T09:41:20.097Z,95439.53
2018-08-24T09:43:55.569Z,95436.50
2018-08-24T09:46:30.053Z,95430.59
2018-08-24T09:49:04.499Z,95424.12
2018-08-24T09:51:33.621Z,95438.66
2018-08-24T09:54:09.696Z,95440.43
2018-08-24T09:56:40.198Z,95448.13
2018-08-24T09:59:09.373Z,95441.12
2018-08-24T10:01:43.767Z,95439.58
2018-08-24T10:04:18.187Z,95445.19
2018-08-24T10:06:52.685Z,95439.44
2018-08-24T10:09:21.830Z,95448.53
2018-08-24T10:11:50.986Z,95444.86
2018-08-24T10:14:20.153Z,95440.23
2018-08-24T10:16:49.380Z,95461.50
2018-08-24T10:19:18.525Z,95441.94
2018-08-24T10:21:47.713Z,95438.84
2018-08-24T10:24:16.857Z,95435.17
2018-08-24T10:26:46.017Z,95434.58
2018-08-24T10:29:15.211Z,95436.41
2018-08-24T10:31:44.297Z,95425.84
2018-08-24T10:34:13.421Z,95427.05
2018-08-24T10:36:42.576Z,95425.36
2018-08-24T10:39:12.442Z,95436.33
2018-08-24T10:41:41.621Z,95427.66
2018-08-24T10:44:10.761Z,95427.17
2018-08-24T10:46:39.905Z,95428.41
2018-08-24T10:49:09.035Z,95427.19
2018-08-24T10:51:38.193Z,95423.81
2018-08-24T10:54:07.322Z,95417.23
2018-08-24T10:56:36.489Z,95410.31
2018-08-24T10:59:05.720Z,95417.56
2018-08-24T11:01:34.889Z,95419.40
2018-08-24T11:04:04.070Z,95411.05
2018-08-24T11:06:33.249Z,95421.61
2018-08-24T11:09:02.423Z,95422.14
2018-08-24T11:11:31.573Z,95419.28
2018-08-24T11:14:00.722Z,95406.39
2018-08-24T11:16:29.889Z,95406.64
2018-08-24T11:18:59.034Z,95407.31
2018-08-24T11:21:28.178Z,95400.70
2018-08-24T11:23:57.341Z,95395.00
2018-08-24T11:26:26.501Z,95400.88
2018-08-24T11:28:55.695Z,95395.13
2018-08-24T11:31:24.825Z,95390.14
2018-08-24T11:33:53.987Z,95386.58
2018-08-24T11:36:23.221Z,95385.75
2018-08-24T11:38:52.386Z,95379.70
2018-08-24T11:41:21.545Z,95375.91
2018-08-24T11:43:50.717Z,95378.50
2018-08-24T11:46:19.877Z,95378.05
2018-08-24T11:48:49.032Z,95365.27
2018-08-24T11:51:18.174Z,95355.11
2018-08-24T11:53:47.332Z,95351.27
2018-08-24T11:56:16.501Z,95342.20
2018-08-24T11:58:45.669Z,95343.88
2018-08-24T12:01:14.821Z,95336.41
2018-08-24T12:03:43.974Z,95335.40
2018-08-24T12:06:13.137Z,95338.75
2018-08-24T12:08:42.301Z,95336.45
2018-08-24T12:11:11.446Z,95331.17
2018-08-24T12:13:40.629Z,95329.68
2018-08-24T12:16:09.777Z,95322.91
2018-08-24T12:18:38.935Z,95315.69
2018-08-24T12:21:08.109Z,95318.87
2018-08-24T12:23:37.291Z,95323.69
2018-08-24T12:26:07.010Z,95312.92
2018-08-24T12:28:36.161Z,95309.41
2018-08-24T12:31:05.522Z,95299.66
2018-08-24T12:33:34.547Z,95295.93
2018-08-24T12:36:03.730Z,95292.02
2018-08-24T12:38:32.853Z,95298.99
2018-08-24T12:41:02.048Z,95292.23
2018-08-24T12:43:31.236Z,95291.21
2018-08-24T12:46:00.334Z,95285.31
2018-08-24T12:48:29.465Z,95282.26
2018-08-24T12:50:58.609Z,95278.89
2018-08-24T12:53:27.739Z,95281.02
2018-08-24T12:55:56.962Z,95277.62
2018-08-24T12:58:26.155Z,95279.65
2018-08-24T13:00:55.322Z,95275.03
2018-08-24T13:03:24.443Z,95273.73
2018-08-24T13:05:53.604Z,95279.36
2018-08-24T13:08:22.730Z,95276.73
2018-08-24T13:10:51.871Z,95270.82
2018-08-24T13:13:21.007Z,95264.92
2018-08-24T13:15:50.293Z,95266.84
2018-08-24T13:18:19.404Z,95258.58
2018-08-24T13:20:48.562Z,95267.91
2018-08-24T13:23:17.820Z,95253.59
2018-08-24T13:25:46.969Z,95256.03
2018-08-24T13:28:16.097Z,95250.05
2018-08-24T13:30:45.297Z,95250.90
2018-08-24T13:33:14.428Z,95250.60
2018-08-24T13:35:43.578Z,95242.89
2018-08-24T13:38:12.742Z,95247.20
2018-08-24T13:40:41.881Z,95244.72
2018-08-24T13:43:11.472Z,95234.95
2018-08-24T13:45:40.709Z,95232.46
2018-08-24T13:48:09.880Z,95225.85
2018-08-24T13:50:39.001Z,95219.05
2018-08-24T13:53:08.129Z,95217.86
2018-08-24T13:55:37.282Z,95202.88
2018-08-24T13:58:06.409Z,95207.63
2018-08-24T14:00:35.529Z,95199.41
2018-08-24T14:03:04.682Z,95208.97
2018-08-24T14:05:33.919Z,95203.94
2018-08-24T14:08:02.969Z,95199.61
2018-08-24T14:10:32.110Z,95199.86
2018-08-24T14:13:01.292Z,95196.98
2018-08-24T14:15:30.407Z,95199.50
2018-08-24T14:17:59.552Z,95200.14
2018-08-24T14:20:28.688Z,95204.90
2018-08-24T14:22:57.805Z,95197.20
2018-08-24T14:25:26.988Z,95193.34
2018-08-24T14:27:56.113Z,95193.91
2018-08-24T14:30:25.275Z,95186.65
2018-08-24T14:32:54.397Z,95179.02
2018-08-24T14:35:23.533Z,95183.47
2018-08-24T14:37:52.721Z,95185.42
2018-08-24T14:40:21.869Z,95182.02
2018-08-24T14:42:51.017Z,95176.35
2018-08-24T14:45:20.177Z,95180.20
2018-08-24T14:47:49.372Z,95183.89
2018-08-24T14:50:18.518Z,95191.23
2018-08-24T14:52:47.685Z,95196.88
2018-08-24T14:55:16.849Z,95206.96
2018-08-24T14:57:46.013Z,95220.22
2018-08-24T15:00:15.189Z,95216.58
2018-08-24T15:02:44.346Z,95219.12
2018-08-24T15:05:13.536Z,95214.87
2018-08-24T15:07:42.713Z,95222.94
2018-08-24T15:10:12.401Z,95223.79
2018-08-24T15:12:41.709Z,95219.91
2018-08-24T15:15:10.887Z,95211.49
2018-08-24T15:17:40.078Z,95212.02
2018-08-24T15:20:09.327Z,95204.08
2018-08-24T15:22:38.473Z,95200.96
2018-08-24T15:25:07.702Z,95201.98
2018-08-24T15:27:36.865Z,95195.31
2018-08-24T15:30:06.501Z,95212.33
2018-08-24T15:32:35.663Z,95206.92
2018-08-24T15:35:04.857Z,95211.08
2018-08-24T15:37:34.008Z,95208.84
2018-08-24T15:40:03.183Z,95198.95
2018-08-24T15:42:32.349Z,95194.07
2018-08-24T15:45:01.528Z,95196.20
2018-08-24T15:47:30.718Z,95195.36
2018-08-24T15:49:59.904Z,95209.38
2018-08-24T15:52:29.087Z,95206.33
2018-08-24T15:54:58.237Z,95224.28
2018-08-24T15:57:27.633Z,95230.25
2018-08-24T15:59:56.887Z,95236.56
2018-08-24T16:02:26.030Z,95239.95
2018-08-24T16:04:55.201Z,95242.74
2018-08-24T16:07:24.357Z,95241.36
2018-08-24T16:09:53.540Z,95243.77
2018-08-24T16:12:22.736Z,95240.59
2018-08-24T16:14:51.866Z,95235.79
2018-08-24T16:17:21.047Z,95239.09
2018-08-24T16:19:50.214Z,95240.86
2018-08-24T16:22:19.572Z,95245.41
2018-08-24T16:24:48.754Z,95254.30
2018-08-24T16:27:22.565Z,95260.11
2018-08-24T16:29:53.821Z,95271.31
2018-08-24T16:32:23.001Z,95269.45
2018-08-24T16:34:52.501Z,95272.48
2018-08-24T16:37:21.662Z,95276.33
2018-08-24T16:39:50.885Z,95277.69
2018-08-24T16:42:20.029Z,95281.03
2018-08-24T16:44:49.201Z,95283.42
2018-08-24T16:47:18.369Z,95284.48
2018-08-24T16:49:47.531Z,95289.33
2018-08-24T16:52:16.710Z,95286.24
2018-08-24T16:54:45.857Z,95297.32
2018-08-24T16:57:15.053Z,95296.36
2018-08-24T16:59:44.218Z,95303.48
2018-08-24T17:02:13.387Z,95305.31
2018-08-24T17:04:42.542Z,95298.60
2018-08-24T17:07:11.746Z,95311.36
2018-08-24T17:09:40.957Z,95319.89
2018-08-24T17:12:10.110Z,95318.61
2018-08-24T17:14:39.299Z,95316.31
2018-08-24T17:17:08.445Z,95317.92
2018-08-24T17:19:37.610Z,95326.68
2018-08-24T17:22:07.057Z,95332.10
2018-08-24T17:24:36.238Z,95336.03
2018-08-24T17:27:05.658Z,95340.64
2018-08-24T17:29:34.922Z,95341.93
2018-08-24T17:32:04.098Z,95344.94
2018-08-24T17:34:33.367Z,95349.01
2018-08-24T17:37:02.501Z,95351.83
2018-08-24T17:39:31.664Z,95346.55
2018-08-24T17:42:00.825Z,95352.11
2018-08-24T17:44:30.005Z,95347.88
2018-08-24T17:46:59.173Z,95354.80
2018-08-24T17:49:28.348Z,95356.41
2018-08-24T17:51:57.509Z,95358.30
2018-08-24T17:54:26.731Z,95357.91
2018-08-24T17:56:55.838Z,95367.30
2018-08-24T17:59:24.973Z,95371.30
2018-08-24T18:01:54.117Z,95372.43
2018-08-24T18:04:23.308Z,95376.75
2018-08-24T18:06:52.535Z,95377.92
2018-08-24T18:09:21.703Z,95380.33
2018-08-24T18:11:50.845Z,95382.23
2018-08-24T18:14:21.017Z,95375.48
2018-08-24T18:16:50.754Z,95379.95
2018-08-24T18:19:20.564Z,95384.50
2018-08-24T18:21:51.877Z,95384.03
2018-08-24T18:24:21.070Z,95381.94
2018-08-24T18:26:50.258Z,95380.58
2018-08-24T18:29:19.438Z,95385.11
2018-08-24T18:31:48.616Z,95389.77
2018-08-24T18:34:18.032Z,95394.44
2018-08-24T18:36:47.287Z,95403.05
2018-08-24T18:39:16.382Z,95414.28
2018-08-24T18:41:45.610Z,95410.05
2018-08-24T18:44:14.890Z,95417.44
2018-08-24T18:46:44.189Z,95416.16
2018-08-24T18:49:13.361Z,95423.41
2018-08-24T18:51:42.590Z,95423.15
2018-08-24T18:54:11.825Z,95431.88
2018-08-24T18:56:41.213Z,95435.33
2018-08-24T18:59:10.289Z,95431.85
2018-08-24T19:01:39.472Z,95431.76
2018-08-24T19:04:08.830Z,95439.74
2018-08-24T19:06:38.149Z,95445.30
2018-08-24T19:09:09.814Z,95443.50
2018-08-24T19:11:44.157Z,95444.88
2018-08-24T19:14:13.341Z,95448.70
2018-08-24T19:16:42.522Z,95445.84
2018-08-24T19:19:16.881Z,95434.70
2018-08-24T19:21:47.470Z,95425.19
2018-08-24T19:24:16.617Z,95414.24
2018-08-24T19:26:45.774Z,95417.30
2018-08-24T19:29:20.229Z,95415.09
2018-08-24T19:31:49.418Z,95412.00
2018-08-24T19:34:18.577Z,95413.95
2018-08-24T19:36:47.770Z,95407.55
2018-08-24T19:39:16.914Z,95405.58
2018-08-24T19:41:51.353Z,95405.98
2018-08-24T19:44:20.478Z,95400.66
2018-08-24T19:46:49.888Z,95398.55
2018-08-24T19:49:20.559Z,95402.86
2018-08-24T19:51:49.834Z,95407.77
2018-08-24T19:54:18.977Z,95409.12
2018-08-24T19:56:48.197Z,95416.91
2018-08-24T19:59:17.786Z,95414.36
2018-08-24T20:01:47.055Z,95418.95
2018-08-24T20:04:16.284Z,95417.91
2018-08-24T20:07:53.662Z,95420.34
2018-08-24T20:10:22.837Z,95414.17
2018-08-24T20:12:52.027Z,95411.41
2018-08-24T20:15:26.405Z,95415.11
2018-08-24T20:17:55.605Z,95414.10
2018-08-24T20:20:24.785Z,95424.59
2018-08-24T20:22:53.926Z,95438.91
2018-08-24T20:25:23.140Z,95453.03
2018-08-24T20:27:52.306Z,95453.84
2018-08-24T20:30:21.449Z,95456.58
2018-08-24T20:32:50.602Z,95453.45
2018-08-24T20:35:19.750Z,95450.41
2018-08-24T20:37:48.889Z,95451.41
2018-08-24T20:40:18.016Z,95461.13
2018-08-24T20:42:47.160Z,95458.89
2018-08-24T20:45:16.311Z,95453.18
2018-08-24T20:47:45.470Z,95459.00
2018-08-24T20:50:14.623Z,95458.96
2018-08-24T20:52:43.757Z,95467.33
2018-08-24T20:55:12.985Z,95469.91
2018-08-24T20:57:42.077Z,95463.23
2018-08-24T21:00:11.334Z,95461.55
2018-08-24T21:02:40.485Z,95458.80
2018-08-24T21:05:09.684Z,95462.33
2018-08-24T21:07:38.849Z,95461.20
2018-08-24T21:10:08.038Z,95466.59
2018-08-24T21:12:37.392Z,95456.41
2018-08-24T21:15:06.920Z,95452.86
2018-08-24T21:17:36.030Z,95455.06
2018-08-24T21:20:05.200Z,95457.92
2018-08-24T21:22:34.328Z,95463.77
2018-08-24T21:25:03.490Z,95455.60
2018-08-24T21:27:32.787Z,95465.05
2018-08-24T21:30:02.094Z,95456.83
2018-08-24T21:32:31.293Z,95449.44
2018-08-24T21:35:00.485Z,95451.97
2018-08-24T21:37:29.727Z,95458.21
2018-08-24T21:39:58.967Z,95464.85
2018-08-24T21:42:28.180Z,95469.75
2018-08-24T21:44:57.345Z,95465.97
2018-08-24T21:47:26.486Z,95459.91
2018-08-24T21:49:55.658Z,95469.95
2018-08-24T21:52:24.817Z,95462.36
2018-08-24T21:54:53.987Z,95464.29
2018-08-24T21:57:23.163Z,95461.52
2018-08-24T21:59:52.365Z,95461.25
2018-08-24T22:02:21.500Z,95460.55
2018-08-24T22:04:50.661Z,95462.63
2018-08-24T22:07:19.817Z,95457.67
2018-08-24T22:09:49.317Z,95456.13
2018-08-24T22:12:18.449Z,95460.55
2018-08-24T22:14:47.630Z,95459.66
2018-08-24T22:17:16.781Z,95459.73
2018-08-24T22:19:45.955Z,95458.72
2018-08-24T22:22:15.181Z,95457.64
2018-08-24T22:24:44.409Z,95460.41
2018-08-24T22:27:13.593Z,95452.81
2018-08-24T22:29:42.770Z,95447.08
2018-08-24T22:32:11.933Z,95450.08
2018-08-24T22:34:41.129Z,95441.10
2018-08-24T22:37:10.385Z,95443.13
2018-08-24T22:39:39.785Z,95444.22
2018-08-24T22:42:08.982Z,95449.98
2018-08-24T22:44:38.209Z,95446.53
2018-08-24T22:47:07.449Z,95454.09
2018-08-24T22:49:36.618Z,95450.08
2018-08-24T22:52:06.575Z,95451.05
2018-08-24T22:54:35.797Z,95444.26
2018-08-24T22:57:04.957Z,95455.11
2018-08-24T22:59:34.152Z,95450.75
2018-08-24T23:02:03.402Z,95456.59
2018-08-24T23:04:32.536Z,95448.80
2018-08-24T23:07:01.717Z,95441.05
2018-08-24T23:09:30.889Z,95450.80
2018-08-24T23:12:00.045Z,95452.59
2018-08-24T23:14:29.213Z,95460.91
2018-08-24T23:16:58.384Z,95458.62
2018-08-24T23:19:27.564Z,95456.29
2018-08-24T23:21:56.736Z,95456.08
2018-08-24T23:24:25.902Z,95454.13
2018-08-24T23:26:55.062Z,95454.20
2018-08-24T23:29:24.227Z,95457.44
2018-08-24T23:31:53.379Z,95454.05
2018-08-24T23:34:22.532Z,95449.74
2018-08-24T23:36:51.661Z,95448.50
2018-08-24T23:39:20.858Z,95439.20
2018-08-24T23:41:49.993Z,95430.13
2018-08-24T23:44:19.149Z,95433.56
2018-08-24T23:46:48.305Z,95436.56
2018-08-24T23:49:17.440Z,95447.05
2018-08-24T23:51:46.577Z,95448.66
2018-08-24T23:54:15.719Z,95445.56
2018-08-24T23:56:44.862Z,95444.36
2018-08-24T23:59:14.022Z,95441.66
